Time;durP1;ratioP1;P1;durP2;ratioP2;P2;SDS_P1;SDS_P2;PMS_P1;PMS_P2;Temp;Humidity;BMP_temperature;BMP_pressure;BME280_temperature;BME280_humidity;BME280_pressure;Samples;Min_cycle;Max_cycle;Signal;HPM_P1;HPM_P2
2022/06/27 00:01:38;;;;;;;9.63;6.20;;;16.40;99.90;;;;;;5000594;28;20108;-58
2022/06/27 00:04:04;;;;;;;10.35;7.18;;;16.40;99.90;;;;;;5006731;28;20476;-61
2022/06/27 00:06:30;;;;;;;8.40;6.43;;;16.40;99.90;;;;;;5004051;28;20640;-57
2022/06/27 00:08:55;;;;;;;7.63;6.85;;;16.40;99.90;;;;;;4989334;28;20042;-58
2022/06/27 00:11:21;;;;;;;9.30;6.68;;;16.40;99.90;;;;;;4990967;28;20918;-57
2022/06/27 00:13:47;;;;;;;8.77;7.57;;;16.40;99.90;;;;;;4989032;28;20034;-55
2022/06/27 00:16:13;;;;;;;11.95;7.95;;;16.30;99.90;;;;;;4989092;28;20040;-58
2022/06/27 00:18:39;;;;;;;8.30;7.25;;;16.40;99.90;;;;;;4993100;28;20050;-57
2022/06/27 00:21:05;;;;;;;12.80;8.45;;;16.30;99.90;;;;;;4987960;28;20121;-56
2022/06/27 00:23:31;;;;;;;8.43;7.60;;;16.30;99.90;;;;;;4998982;28;20521;-56
2022/06/27 00:25:57;;;;;;;10.40;7.75;;;16.30;99.90;;;;;;5008485;28;20030;-59
2022/06/27 00:28:22;;;;;;;12.73;9.38;;;16.30;99.90;;;;;;5005613;28;20062;-60
2022/06/27 00:30:48;;;;;;;12.75;9.32;;;16.40;99.90;;;;;;5002778;28;20144;-59
2022/06/27 00:33:14;;;;;;;13.63;8.40;;;16.30;99.90;;;;;;5008007;28;20027;-60
2022/06/27 00:35:39;;;;;;;11.48;8.52;;;16.30;99.90;;;;;;5005973;28;20022;-55
2022/06/27 00:38:05;;;;;;;12.15;7.80;;;16.30;99.90;;;;;;5007219;28;20048;-60
2022/06/27 00:40:31;;;;;;;9.27;8.25;;;16.30;99.90;;;;;;5008462;28;20040;-59
2022/06/27 00:42:57;;;;;;;12.25;8.43;;;16.30;99.90;;;;;;5006372;28;20102;-52
2022/06/27 00:45:23;;;;;;;14.95;9.40;;;16.40;99.90;;;;;;4999871;28;20106;-59
2022/06/27 00:47:48;;;;;;;10.88;8.65;;;16.40;99.90;;;;;;5006065;28;20658;-57
2022/06/27 00:50:14;;;;;;;12.32;9.27;;;16.40;99.90;;;;;;5010607;28;20018;-60
2022/06/27 00:52:40;;;;;;;12.77;8.90;;;16.30;99.90;;;;;;5008620;28;20056;-59
2022/06/27 00:55:06;;;;;;;16.13;10.05;;;16.30;99.90;;;;;;5004455;28;20075;-58
2022/06/27 00:57:33;;;;;;;10.50;8.98;;;16.30;99.90;;;;;;4999742;28;20099;-58
2022/06/27 00:59:58;;;;;;;11.27;9.27;;;16.30;99.90;;;;;;5009252;28;20033;-56
2022/06/27 01:02:24;;;;;;;10.30;8.85;;;16.30;99.90;;;;;;5003928;28;20034;-57
2022/06/27 01:04:50;;;;;;;13.13;9.38;;;16.30;99.90;;;;;;5005976;28;20292;-58
2022/06/27 01:07:15;;;;;;;10.57;9.48;;;16.30;99.90;;;;;;5009299;28;20471;-57
2022/06/27 01:09:43;;;;;;;14.48;9.75;;;16.30;99.90;;;;;;5007768;28;20809;-59
2022/06/27 01:12:09;;;;;;;11.55;10.30;;;16.30;99.90;;;;;;5005615;28;20124;-61
2022/06/27 01:14:35;;;;;;;11.98;10.07;;;16.30;99.90;;;;;;5003835;28;20037;-56
2022/06/27 01:17:02;;;;;;;12.63;10.43;;;16.30;99.90;;;;;;5009111;28;20026;-59
2022/06/27 01:19:27;;;;;;;13.02;11.43;;;16.30;99.90;;;;;;5001846;28;20065;-58
2022/06/27 01:21:55;;;;;;;13.60;11.00;;;16.30;99.90;;;;;;4996031;28;20092;-59
2022/06/27 01:24:23;;;;;;;14.13;9.73;;;16.30;99.90;;;;;;4996343;28;20032;-59
2022/06/27 01:26:49;;;;;;;11.75;9.63;;;16.30;99.90;;;;;;4999688;28;20510;-57
2022/06/27 01:29:15;;;;;;;12.48;8.60;;;16.30;99.90;;;;;;5001518;28;20034;-59
2022/06/27 01:31:41;;;;;;;12.30;7.75;;;16.40;99.90;;;;;;5003491;28;20029;-59
2022/06/27 01:34:08;;;;;;;11.50;8.50;;;16.40;99.90;;;;;;5005604;28;20076;-56
2022/06/27 01:36:44;;;;;;;14.10;9.18;;;16.30;99.90;;;;;;5002841;28;20042;-60
2022/06/27 01:39:10;;;;;;;23.90;11.80;;;16.30;99.90;;;;;;5005831;28;20045;-60
2022/06/27 01:41:40;;;;;;;10.30;9.18;;;16.20;99.90;;;;;;5009566;28;20116;-56
2022/06/27 01:44:06;;;;;;;18.02;11.27;;;16.20;99.90;;;;;;5005167;28;20067;-56
2022/06/27 01:47:01;;;;;;;15.73;10.70;;;16.20;99.90;;;;;;5002591;28;20054;-57
2022/06/27 01:49:29;;;;;;;15.07;12.45;;;16.30;99.90;;;;;;4992937;28;20049;-58
2022/06/27 01:51:55;;;;;;;14.98;13.40;;;16.20;99.90;;;;;;5003304;28;20026;-58
2022/06/27 01:54:22;;;;;;;14.40;12.63;;;16.30;99.90;;;;;;4997951;28;20495;-58
2022/06/27 01:56:49;;;;;;;18.38;13.50;;;16.30;99.90;;;;;;5000713;28;20127;-57
2022/06/27 01:59:16;;;;;;;12.85;11.52;;;16.30;99.90;;;;;;4995836;28;20033;-60
2022/06/27 02:01:43;;;;;;;13.43;12.02;;;16.20;99.90;;;;;;4995830;28;20054;-59
2022/06/27 02:04:11;;;;;;;15.13;12.38;;;16.30;99.90;;;;;;4991190;28;20039;-61
2022/06/27 02:06:38;;;;;;;13.13;11.73;;;16.30;99.90;;;;;;4994720;28;20029;-62
2022/06/27 02:09:06;;;;;;;13.55;11.63;;;16.30;99.90;;;;;;5002550;28;20034;-60
2022/06/27 02:11:32;;;;;;;14.20;12.63;;;16.30;99.90;;;;;;5004463;28;20049;-58
2022/06/27 02:13:58;;;;;;;15.77;11.30;;;16.30;99.90;;;;;;5002502;28;20470;-57
2022/06/27 02:16:25;;;;;;;14.25;11.07;;;16.30;99.90;;;;;;5009515;28;20068;-54
2022/06/27 02:18:50;;;;;;;12.18;9.82;;;16.30;99.90;;;;;;5010049;28;20030;-58
2022/06/27 02:21:19;;;;;;;13.57;10.68;;;16.20;99.90;;;;;;5011660;28;20034;-58
2022/06/27 02:23:45;;;;;;;11.75;10.55;;;16.30;99.90;;;;;;5006295;28;20472;-55
2022/06/27 02:26:12;;;;;;;10.98;9.88;;;16.20;99.90;;;;;;5007616;28;20033;-58
2022/06/27 02:28:38;;;;;;;13.85;11.10;;;16.20;99.90;;;;;;5007345;28;20113;-57
2022/06/27 02:31:06;;;;;;;17.02;10.88;;;16.20;99.90;;;;;;5006147;28;20120;-57
2022/06/27 02:33:43;;;;;;;18.60;11.85;;;16.10;99.90;;;;;;5003301;28;20022;-58
2022/06/27 02:36:13;;;;;;;15.15;11.20;;;16.10;99.90;;;;;;5008672;28;20026;-57
2022/06/27 02:38:40;;;;;;;16.95;12.65;;;16.20;99.90;;;;;;5009084;28;20395;-59
2022/06/27 02:41:09;;;;;;;14.60;12.48;;;16.10;99.90;;;;;;5008912;28;20038;-58
2022/06/27 02:43:38;;;;;;;14.07;12.40;;;16.20;99.90;;;;;;5010999;28;20030;-61
2022/06/27 02:46:05;;;;;;;15.02;12.18;;;16.20;99.90;;;;;;5008392;28;20045;-59
2022/06/27 02:48:32;;;;;;;15.50;12.50;;;16.20;99.90;;;;;;5001062;28;20121;-59
2022/06/27 02:51:04;;;;;;;14.48;12.38;;;16.30;99.90;;;;;;5001823;28;20044;-57
2022/06/27 02:53:34;;;;;;;13.00;11.52;;;16.20;99.90;;;;;;5002315;28;20423;-57
2022/06/27 02:56:03;;;;;;;15.20;12.27;;;16.30;99.90;;;;;;5011642;28;20509;-58
2022/06/27 02:59:04;;;;;;;14.55;11.88;;;16.20;99.90;;;;;;5004193;28;20026;-58
2022/06/27 03:01:31;;;;;;;11.82;10.02;;;16.20;99.90;;;;;;5006175;28;20125;-53
2022/06/27 03:03:59;;;;;;;13.77;10.93;;;16.30;99.90;;;;;;5004680;28;20392;-58
2022/06/27 03:06:24;;;;;;;12.10;10.20;;;16.20;99.90;;;;;;5009422;28;20105;-57
2022/06/27 03:08:51;;;;;;;13.00;10.52;;;16.20;99.90;;;;;;5011527;28;20448;-59
2022/06/27 03:11:18;;;;;;;14.40;11.43;;;16.20;99.90;;;;;;5010676;28;20562;-59
2022/06/27 03:13:45;;;;;;;13.80;11.88;;;16.20;99.90;;;;;;5002058;28;20125;-56
2022/06/27 03:16:12;;;;;;;12.48;11.00;;;16.20;99.90;;;;;;5010967;28;20025;-55
2022/06/27 03:18:38;;;;;;;14.90;11.88;;;16.20;99.90;;;;;;5009722;28;20036;-61
2022/06/27 03:21:04;;;;;;;16.55;14.05;;;16.20;99.90;;;;;;5008532;28;20414;-58
2022/06/27 03:23:29;;;;;;;24.27;14.15;;;16.20;99.90;;;;;;5008737;28;20036;-59
2022/06/27 03:25:55;;;;;;;16.75;13.32;;;16.20;99.90;;;;;;5010198;28;20026;-62
2022/06/27 03:28:21;;;;;;;13.55;11.57;;;16.20;99.90;;;;;;5009584;28;20510;-60
2022/06/27 03:30:47;;;;;;;14.20;11.52;;;16.20;99.90;;;;;;5008428;28;20121;-52
2022/06/27 03:33:13;;;;;;;20.90;12.40;;;16.20;99.90;;;;;;5008874;28;20033;-59
2022/06/27 03:35:39;;;;;;;14.20;11.48;;;16.20;99.90;;;;;;5008692;28;20060;-56
2022/06/27 03:38:05;;;;;;;13.13;11.70;;;16.20;99.90;;;;;;5009285;28;20018;-59
2022/06/27 03:40:30;;;;;;;14.20;11.95;;;16.20;99.90;;;;;;5009705;28;20567;-58
2022/06/27 03:42:56;;;;;;;15.38;12.93;;;16.20;99.90;;;;;;5004817;28;20029;-60
2022/06/27 03:45:21;;;;;;;14.48;11.75;;;16.20;99.90;;;;;;5002903;28;20121;-58
2022/06/27 03:47:52;;;;;;;13.07;11.65;;;16.20;99.90;;;;;;5009321;28;20033;-59
2022/06/27 03:50:19;;;;;;;19.42;13.38;;;16.20;99.90;;;;;;5007658;28;20037;-58
2022/06/27 03:52:45;;;;;;;19.20;12.95;;;16.20;99.90;;;;;;5002705;28;20487;-58
2022/06/27 03:55:11;;;;;;;13.55;12.05;;;16.20;99.90;;;;;;5008174;28;20022;-59
2022/06/27 03:57:38;;;;;;;18.00;12.27;;;16.20;99.90;;;;;;5001224;28;20029;-57
2022/06/27 04:00:10;;;;;;;14.48;11.48;;;16.20;99.90;;;;;;5003644;28;20041;-58
2022/06/27 04:02:36;;;;;;;13.27;11.73;;;16.30;99.90;;;;;;5010313;28;20025;-58
2022/06/27 04:05:03;;;;;;;13.15;11.85;;;16.20;99.90;;;;;;5003987;28;20029;-58
2022/06/27 04:07:28;;;;;;;20.15;12.63;;;16.30;99.90;;;;;;4997875;28;20053;-54
2022/06/27 04:09:54;;;;;;;13.85;12.38;;;16.20;99.90;;;;;;5010762;28;20396;-57
2022/06/27 04:12:20;;;;;;;15.98;12.02;;;16.30;99.90;;;;;;5005941;28;20108;-58
2022/06/27 04:14:46;;;;;;;16.55;12.85;;;16.30;99.90;;;;;;5002114;28;20141;-55
2022/06/27 04:17:12;;;;;;;15.15;12.85;;;16.20;99.90;;;;;;5008918;28;20022;-58
2022/06/27 04:19:37;;;;;;;16.05;13.60;;;16.20;99.90;;;;;;5009084;28;20034;-59
2022/06/27 04:22:03;;;;;;;15.77;12.82;;;16.20;99.90;;;;;;5011651;28;20030;-58
2022/06/27 04:24:29;;;;;;;15.15;13.00;;;16.30;99.90;;;;;;5007187;28;20077;-54
2022/06/27 04:26:55;;;;;;;13.85;12.30;;;16.30;99.90;;;;;;5010479;28;20033;-60
2022/06/27 04:29:21;;;;;;;18.85;14.48;;;16.30;99.90;;;;;;5005362;28;20029;-60
2022/06/27 04:31:47;;;;;;;20.10;16.23;;;16.30;99.90;;;;;;5007691;28;20022;-59
2022/06/27 04:34:13;;;;;;;22.73;15.80;;;16.30;99.90;;;;;;5007529;28;20030;-59
2022/06/27 04:36:40;;;;;;;18.50;15.93;;;16.30;99.90;;;;;;4996935;28;20072;-57
2022/06/27 04:39:06;;;;;;;27.15;16.13;;;16.30;99.90;;;;;;5008977;28;20026;-60
2022/06/27 04:41:32;;;;;;;15.90;14.43;;;16.40;99.90;;;;;;5001675;28;20022;-56
2022/06/27 04:43:58;;;;;;;14.68;12.65;;;16.40;99.90;;;;;;5008067;28;20041;-58
2022/06/27 04:46:24;;;;;;;15.75;13.35;;;16.40;99.90;;;;;;5003201;28;20026;-59
2022/06/27 04:48:50;;;;;;;20.92;13.35;;;16.50;99.90;;;;;;5008005;28;20021;-58
2022/06/27 04:51:16;;;;;;;14.82;12.63;;;16.50;99.90;;;;;;5005896;28;20026;-61
2022/06/27 04:53:43;;;;;;;14.90;13.38;;;16.50;99.90;;;;;;5007619;28;20026;-63
2022/06/27 04:56:09;;;;;;;18.13;14.63;;;16.50;99.90;;;;;;5006316;28;20577;-60
2022/06/27 04:58:35;;;;;;;17.27;13.95;;;16.60;99.90;;;;;;5006994;28;20034;-60
2022/06/27 05:01:01;;;;;;;12.40;11.20;;;16.50;99.90;;;;;;5000862;28;20029;-60
2022/06/27 05:03:27;;;;;;;15.70;12.95;;;16.50;99.90;;;;;;5003902;28;20053;-55
2022/06/27 05:05:53;;;;;;;13.55;11.98;;;16.60;99.90;;;;;;5006272;28;20084;-54
2022/06/27 05:08:20;;;;;;;15.73;13.25;;;16.70;99.90;;;;;;5000048;28;20069;-58
2022/06/27 05:10:47;;;;;;;16.75;14.25;;;16.60;99.90;;;;;;4996262;28;20099;-55
2022/06/27 05:13:13;;;;;;;18.05;12.70;;;16.60;99.90;;;;;;4999446;28;20028;-61
2022/06/27 05:15:39;;;;;;;17.33;12.88;;;16.70;99.90;;;;;;5007420;28;20480;-59
2022/06/27 05:18:06;;;;;;;14.13;12.10;;;16.70;99.90;;;;;;4999924;28;20041;-57
2022/06/27 05:20:31;;;;;;;17.85;12.60;;;16.70;99.90;;;;;;5004146;28;20110;-60
2022/06/27 05:23:00;;;;;;;19.95;12.02;;;16.80;99.90;;;;;;5004604;28;20101;-61
2022/06/27 05:25:26;;;;;;;14.57;12.90;;;16.80;99.90;;;;;;5006067;28;20506;-50
2022/06/27 05:27:52;;;;;;;13.50;12.13;;;16.80;99.90;;;;;;5000494;28;20037;-61
2022/06/27 05:30:18;;;;;;;15.98;13.40;;;16.90;99.90;;;;;;5008338;28;20025;-59
2022/06/27 05:32:44;;;;;;;24.05;14.40;;;17.00;99.90;;;;;;5006142;28;20038;-59
2022/06/27 05:35:10;;;;;;;14.90;12.75;;;17.00;99.90;;;;;;5008763;28;20105;-58
2022/06/27 05:37:38;;;;;;;14.38;12.90;;;17.10;99.90;;;;;;5003907;28;20022;-58
2022/06/27 05:40:05;;;;;;;16.85;12.63;;;17.30;99.90;;;;;;5008420;28;20105;-58
2022/06/27 05:42:33;;;;;;;15.00;12.68;;;17.50;99.90;;;;;;5003494;28;20045;-60
2022/06/27 05:44:59;;;;;;;16.80;13.50;;;17.60;99.90;;;;;;4996168;28;20052;-59
2022/06/27 05:47:25;;;;;;;17.20;11.98;;;17.50;99.90;;;;;;5004439;28;20062;-61
2022/06/27 05:49:51;;;;;;;18.38;12.20;;;17.50;99.90;;;;;;5004753;28;20056;-59
2022/06/27 05:52:17;;;;;;;14.32;12.80;;;17.60;99.90;;;;;;5007596;28;20025;-59
2022/06/27 05:54:44;;;;;;;14.77;12.50;;;17.50;99.90;;;;;;5007114;28;20475;-61
2022/06/27 05:57:11;;;;;;;14.63;11.85;;;17.50;99.90;;;;;;5004040;28;20030;-59
2022/06/27 05:59:37;;;;;;;15.38;13.30;;;17.60;99.90;;;;;;5007874;28;20076;-59
2022/06/27 06:02:04;;;;;;;16.33;14.50;;;17.60;99.90;;;;;;5008509;28;20061;-55
2022/06/27 06:04:30;;;;;;;16.38;13.18;;;17.70;99.90;;;;;;5005973;28;20033;-59
2022/06/27 06:06:56;;;;;;;13.70;12.07;;;17.70;99.90;;;;;;5003118;28;20049;-58
2022/06/27 06:09:22;;;;;;;18.02;13.35;;;17.80;99.90;;;;;;5007396;28;20472;-60
2022/06/27 06:11:49;;;;;;;13.75;10.65;;;18.10;99.90;;;;;;5003816;28;20049;-55
2022/06/27 06:14:19;;;;;;;11.52;10.32;;;18.50;99.90;;;;;;5006109;28;20080;-58
2022/06/27 06:16:47;;;;;;;15.10;10.80;;;18.80;99.90;;;;;;5005366;28;20491;-60
2022/06/27 06:19:13;;;;;;;12.55;9.45;;;18.80;99.90;;;;;;5021676;28;20041;-63
2022/06/27 06:21:39;;;;;;;15.23;9.82;;;18.90;99.90;;;;;;5009914;28;20022;-60
2022/06/27 06:24:05;;;;;;;11.48;10.27;;;18.80;99.90;;;;;;5007291;28;20033;-60
2022/06/27 06:26:31;;;;;;;12.60;10.57;;;18.70;99.90;;;;;;5007932;28;20499;-61
2022/06/27 06:29:01;;;;;;;17.50;11.55;;;18.50;99.90;;;;;;4987759;28;20065;-61
2022/06/27 06:31:27;;;;;;;18.73;12.70;;;18.50;99.90;;;;;;5009272;28;20431;-59
2022/06/27 06:33:54;;;;;;;14.68;11.65;;;18.40;99.90;;;;;;5004032;28;20029;-60
2022/06/27 06:36:21;;;;;;;14.07;11.52;;;18.30;99.90;;;;;;5006362;28;20472;-58
2022/06/27 06:38:49;;;;;;;16.75;11.77;;;18.20;99.90;;;;;;5007238;28;20396;-53
2022/06/27 06:41:15;;;;;;;16.83;11.50;;;17.90;99.90;;;;;;5007009;28;20032;-60
2022/06/27 06:43:41;;;;;;;13.18;11.80;;;17.90;99.90;;;;;;5007475;28;20031;-60
2022/06/27 06:46:09;;;;;;;14.82;12.38;;;18.00;99.90;;;;;;5001291;28;20022;-58
2022/06/27 06:48:37;;;;;;;17.52;12.80;;;18.00;99.90;;;;;;5007628;28;20052;-59
2022/06/27 06:51:03;;;;;;;13.70;11.85;;;18.10;99.90;;;;;;4996641;28;20026;-57
2022/06/27 06:53:29;;;;;;;15.73;12.82;;;18.20;99.90;;;;;;5005761;28;20029;-59
2022/06/27 06:55:57;;;;;;;15.20;12.65;;;18.40;99.90;;;;;;5004527;28;20097;-58
2022/06/27 06:58:24;;;;;;;15.85;12.85;;;18.70;99.90;;;;;;5005343;28;20030;-57
2022/06/27 07:00:56;;;;;;;14.38;11.90;;;19.10;99.90;;;;;;5002599;28;20033;-55
2022/06/27 07:03:22;;;;;;;14.35;11.93;;;19.20;99.90;;;;;;5007700;28;20022;-58
2022/06/27 07:05:48;;;;;;;18.80;13.73;;;19.20;99.90;;;;;;5012464;28;20026;-59
2022/06/27 07:08:14;;;;;;;16.17;14.00;;;19.10;99.90;;;;;;5008711;28;20445;-60
2022/06/27 07:10:40;;;;;;;18.05;14.32;;;19.10;99.90;;;;;;5007956;28;20101;-57
2022/06/27 07:13:06;;;;;;;19.33;15.13;;;18.90;99.90;;;;;;4999827;28;20036;-58
2022/06/27 07:15:35;;;;;;;19.80;14.43;;;18.70;99.90;;;;;;5005654;28;20047;-58
2022/06/27 07:18:02;;;;;;;19.48;16.48;;;18.70;99.90;;;;;;5010478;28;20080;-60
2022/06/27 07:20:30;;;;;;;16.98;14.85;;;18.70;99.90;;;;;;5008783;28;20042;-58
2022/06/27 07:22:55;;;;;;;17.13;14.25;;;18.80;99.90;;;;;;5005775;28;20124;-60
2022/06/27 07:25:22;;;;;;;15.93;13.20;;;18.90;99.90;;;;;;5002203;28;20113;-60
2022/06/27 07:27:48;;;;;;;17.45;12.82;;;19.10;99.90;;;;;;5002100;28;20034;-59
2022/06/27 07:30:15;;;;;;;14.02;11.48;;;19.20;99.90;;;;;;4992383;28;20998;-62
2022/06/27 07:32:42;;;;;;;19.02;13.57;;;19.50;99.90;;;;;;5010332;28;20033;-62
2022/06/27 07:35:11;;;;;;;17.83;12.55;;;19.70;99.90;;;;;;5004024;28;20125;-60
2022/06/27 07:37:44;;;;;;;18.05;12.70;;;19.70;99.90;;;;;;5006730;28;20026;-59
2022/06/27 07:40:11;;;;;;;16.05;14.23;;;19.40;99.90;;;;;;5006828;28;20523;-61
2022/06/27 07:42:37;;;;;;;19.25;14.70;;;19.30;99.90;;;;;;5009981;28;20554;-61
2022/06/27 07:45:04;;;;;;;18.08;14.00;;;19.20;99.90;;;;;;5002576;28;20045;-61
2022/06/27 07:47:29;;;;;;;19.08;14.63;;;19.20;99.90;;;;;;5008935;28;20064;-57
2022/06/27 07:49:55;;;;;;;16.92;14.40;;;19.30;99.90;;;;;;5008066;28;20484;-61
2022/06/27 07:52:20;;;;;;;15.63;13.18;;;19.30;99.90;;;;;;5010188;28;20038;-61
2022/06/27 07:54:48;;;;;;;14.80;13.13;;;19.40;99.90;;;;;;5006132;28;20057;-59
2022/06/27 07:57:14;;;;;;;16.52;13.48;;;19.40;99.90;;;;;;5007862;28;20105;-57
2022/06/27 07:59:40;;;;;;;15.95;13.07;;;19.40;99.90;;;;;;5007631;28;20619;-59
2022/06/27 08:02:07;;;;;;;15.10;12.60;;;19.70;99.90;;;;;;5011039;28;20026;-60
2022/06/27 08:04:36;;;;;;;21.05;13.77;;;19.70;99.90;;;;;;5004239;28;20045;-60
2022/06/27 08:07:02;;;;;;;18.20;13.00;;;19.80;99.90;;;;;;5009472;28;20038;-59
2022/06/27 08:09:29;;;;;;;17.58;14.73;;;19.80;99.90;;;;;;5004251;28;20038;-60
2022/06/27 08:11:55;;;;;;;16.05;13.10;;;19.80;99.90;;;;;;5007746;28;20026;-61
2022/06/27 08:14:21;;;;;;;18.05;13.27;;;19.50;99.90;;;;;;5003742;28;20064;-57
2022/06/27 08:16:49;;;;;;;27.63;14.77;;;19.40;99.90;;;;;;5001625;28;20063;-58
2022/06/27 08:19:15;;;;;;;18.42;14.88;;;19.20;99.90;;;;;;5006752;28;20056;-58
2022/06/27 08:21:43;;;;;;;16.88;15.00;;;19.00;99.90;;;;;;5007363;28;20496;-57
2022/06/27 08:24:12;;;;;;;19.88;16.48;;;18.90;99.90;;;;;;5008629;28;20041;-57
2022/06/27 08:26:38;;;;;;;21.13;17.35;;;18.80;99.90;;;;;;5008969;28;20467;-60
2022/06/27 08:29:07;;;;;;;23.42;18.50;;;18.80;99.90;;;;;;4997543;28;20058;-59
2022/06/27 08:31:33;;;;;;;22.10;16.77;;;18.60;99.90;;;;;;4999219;28;20053;-58
2022/06/27 08:34:03;;;;;;;23.13;16.17;;;18.60;99.90;;;;;;5006303;28;20029;-59
2022/06/27 08:36:30;;;;;;;24.48;16.25;;;18.60;99.90;;;;;;4998336;28;20431;-57
2022/06/27 08:38:58;;;;;;;23.05;15.68;;;18.60;99.90;;;;;;5004694;28;20093;-58
2022/06/27 08:41:24;;;;;;;25.95;18.38;;;18.60;99.90;;;;;;5004326;28;20030;-57
2022/06/27 08:44:00;;;;;;;22.52;18.45;;;18.60;99.90;;;;;;5008363;28;20499;-58
2022/06/27 08:46:28;;;;;;;24.60;17.05;;;18.50;99.90;;;;;;5006114;28;20068;-58
2022/06/27 08:48:55;;;;;;;26.67;16.73;;;18.50;99.90;;;;;;5004976;28;20034;-58
2022/06/27 08:51:21;;;;;;;28.95;18.50;;;18.40;99.90;;;;;;5007601;28;20035;-60
2022/06/27 08:53:50;;;;;;;23.85;18.08;;;18.40;99.90;;;;;;5000801;28;20030;-58
2022/06/27 08:56:17;;;;;;;23.13;19.10;;;18.40;99.90;;;;;;4997559;28;20026;-57
2022/06/27 08:58:46;;;;;;;23.90;18.08;;;18.40;99.90;;;;;;5024512;28;20395;-60
2022/06/27 09:01:15;;;;;;;22.67;17.63;;;18.30;99.90;;;;;;5005278;28;20036;-60
2022/06/27 09:04:01;;;;;;;24.00;17.17;;;18.30;99.90;;;;;;5002286;28;20113;-55
2022/06/27 09:06:30;;;;;;;20.10;15.55;;;18.20;99.90;;;;;;5006839;28;20026;-60
2022/06/27 09:09:08;;;;;;;25.10;16.95;;;18.20;99.90;;;;;;5006524;28;20510;-58
2022/06/27 09:11:35;;;;;;;20.75;16.10;;;18.20;99.90;;;;;;5003664;28;20148;-51
2022/06/27 09:14:03;;;;;;;19.10;15.68;;;18.20;99.90;;;;;;5003637;28;20022;-56
2022/06/27 09:16:29;;;;;;;17.08;14.63;;;18.20;99.90;;;;;;5005674;28;20400;-57
2022/06/27 09:18:55;;;;;;;18.20;15.25;;;18.20;99.90;;;;;;5002479;28;20137;-56
2022/06/27 09:21:22;;;;;;;23.70;16.70;;;18.20;99.90;;;;;;5000630;28;20052;-53
2022/06/27 09:23:54;;;;;;;19.80;14.75;;;18.10;99.90;;;;;;5004112;28;20033;-58
2022/06/27 09:26:29;;;;;;;20.27;15.93;;;18.10;99.90;;;;;;5004981;28;20017;-56
2022/06/27 09:28:58;;;;;;;23.02;15.35;;;18.10;99.90;;;;;;4992770;28;20049;-60
2022/06/27 09:31:35;;;;;;;19.13;15.70;;;18.20;99.90;;;;;;5005593;28;20030;-60
2022/06/27 09:34:09;;;;;;;19.00;14.73;;;18.20;99.90;;;;;;5005622;28;20076;-61
2022/06/27 09:36:39;;;;;;;18.63;15.38;;;18.20;99.90;;;;;;5003659;28;20045;-60
2022/06/27 09:39:06;;;;;;;18.55;14.85;;;18.30;99.90;;;;;;5003115;28;20021;-59
2022/06/27 09:41:34;;;;;;;20.08;14.93;;;18.40;99.90;;;;;;5001868;28;20556;-59
2022/06/27 09:44:10;;;;;;;14.75;13.20;;;18.60;99.90;;;;;;5003811;28;20430;-59
2022/06/27 09:46:42;;;;;;;20.25;13.43;;;18.90;99.90;;;;;;5004757;28;20037;-59
2022/06/27 09:49:13;;;;;;;16.88;13.05;;;19.10;99.90;;;;;;5003145;28;20036;-57
2022/06/27 09:51:39;;;;;;;20.98;12.85;;;19.40;99.90;;;;;;4999449;28;20044;-52
2022/06/27 09:54:16;;;;;;;15.50;12.63;;;19.50;99.90;;;;;;5000570;28;20038;-57
2022/06/27 09:56:42;;;;;;;17.70;11.63;;;19.70;99.90;;;;;;5002269;28;20042;-57
2022/06/27 09:59:12;;;;;;;18.63;12.18;;;20.00;99.90;;;;;;5000381;28;20054;-59
2022/06/27 10:01:42;;;;;;;14.90;13.35;;;20.30;99.90;;;;;;5005717;28;20026;-57
2022/06/27 10:04:09;;;;;;;15.55;12.10;;;20.60;99.90;;;;;;5001560;28;20046;-57
2022/06/27 10:06:40;;;;;;;16.85;11.40;;;20.70;99.90;;;;;;4999878;28;20025;-58
2022/06/27 10:09:08;;;;;;;15.50;12.05;;;20.90;99.90;;;;;;4999683;28;20049;-59
2022/06/27 10:11:38;;;;;;;23.42;13.98;;;21.30;99.90;;;;;;4999504;28;20042;-60
2022/06/27 10:14:21;;;;;;;16.40;12.88;;;21.50;99.90;;;;;;5002651;28;20541;-54
2022/06/27 10:17:00;;;;;;;16.58;11.45;;;21.50;99.90;;;;;;5000547;28;20056;-57
2022/06/27 10:19:27;;;;;;;18.48;14.85;;;21.70;99.90;;;;;;5000783;28;20496;-60
2022/06/27 10:21:54;;;;;;;20.08;15.18;;;21.50;99.90;;;;;;5002045;28;20080;-58
2022/06/27 10:24:21;;;;;;;17.52;15.35;;;21.40;99.90;;;;;;5004147;28;20021;-56
2022/06/27 10:26:49;;;;;;;15.50;13.60;;;21.10;99.90;;;;;;5006037;28;20049;-58
2022/06/27 10:29:30;;;;;;;15.27;12.65;;;21.00;99.90;;;;;;4994686;28;20050;-59
2022/06/27 10:32:03;;;;;;;14.88;11.68;;;20.80;99.90;;;;;;5010351;28;20083;-58
2022/06/27 10:34:37;;;;;;;18.67;13.48;;;20.70;99.90;;;;;;5010698;28;20033;-54
2022/06/27 10:37:24;;;;;;;16.35;13.70;;;20.50;99.90;;;;;;5009429;28;20030;-59
2022/06/27 10:40:14;;;;;;;15.45;12.98;;;20.20;99.90;;;;;;5004952;28;20021;-57
2022/06/27 10:42:56;;;;;;;22.02;13.68;;;20.20;99.90;;;;;;5006825;28;20026;-58
2022/06/27 10:45:26;;;;;;;25.27;13.82;;;20.00;99.90;;;;;;5002335;28;20034;-59
2022/06/27 10:48:01;;;;;;;16.42;13.52;;;20.10;99.90;;;;;;5009295;28;20088;-57
2022/06/27 10:50:38;;;;;;;17.40;14.25;;;20.10;99.90;;;;;;5002253;28;20511;-56
2022/06/27 10:53:19;;;;;;;17.20;13.07;;;20.10;99.90;;;;;;5006959;28;20676;-60
2022/06/27 10:55:45;;;;;;;15.60;13.25;;;20.20;99.90;;;;;;5006966;28;21076;-59
2022/06/27 10:58:40;;;;;;;17.00;12.68;;;20.30;99.90;;;;;;5009453;28;20029;-58
2022/06/27 11:01:13;;;;;;;15.13;12.82;;;20.40;99.90;;;;;;5009840;28;20029;-58
2022/06/27 11:03:39;;;;;;;;;;;20.70;99.90;;;;;;5006587;28;20014;-56
2022/06/27 11:06:06;;;;;;;15.75;13.48;;;20.90;99.90;;;;;;5004960;28;20483;-58
2022/06/27 11:08:34;;;;;;;16.20;12.68;;;21.00;99.90;;;;;;5001491;28;20080;-55
2022/06/27 11:11:01;;;;;;;16.83;13.38;;;21.30;99.90;;;;;;5010185;28;20045;-56
2022/06/27 11:13:48;;;;;;;18.08;11.90;;;21.30;99.90;;;;;;5008606;28;20018;-58
2022/06/27 11:16:20;;;;;;;17.92;13.05;;;21.50;99.90;;;;;;5004303;28;20054;-58
2022/06/27 11:18:47;;;;;;;20.05;14.65;;;21.40;99.90;;;;;;5009896;28;20088;-57
2022/06/27 11:21:15;;;;;;;18.27;13.63;;;21.20;99.90;;;;;;5010976;28;20054;-55
2022/06/27 11:23:54;;;;;;;18.88;13.68;;;21.10;99.90;;;;;;5009390;28;20057;-52
2022/06/27 11:26:21;;;;;;;14.57;12.60;;;21.00;99.90;;;;;;5008936;28;20131;-56
2022/06/27 11:34:16;;;;;;;13.38;11.90;;;20.80;99.90;;;;;;5009350;28;20033;-58
2022/06/27 11:36:42;;;;;;;17.48;12.30;;;20.80;99.90;;;;;;5007389;28;20030;-59
2022/06/27 11:39:08;;;;;;;14.48;12.52;;;20.90;99.90;;;;;;5005682;28;20650;-60
2022/06/27 11:41:38;;;;;;;16.38;12.95;;;21.00;99.90;;;;;;5007160;28;20069;-58
2022/06/27 11:44:08;;;;;;;15.85;13.13;;;21.00;99.90;;;;;;5007406;28;20471;-60
2022/06/27 11:46:45;;;;;;;18.23;14.07;;;21.10;99.90;;;;;;5006754;28;20487;-59
2022/06/27 11:49:31;;;;;;;17.52;14.75;;;21.10;99.90;;;;;;5008461;28;20030;-61
2022/06/27 11:52:10;;;;;;;17.85;14.50;;;21.20;99.90;;;;;;5007010;28;20030;-60
2022/06/27 11:54:37;;;;;;;15.13;13.57;;;21.10;99.90;;;;;;5009815;28;20022;-59
2022/06/27 11:57:03;;;;;;;21.17;16.38;;;21.10;99.90;;;;;;5011066;28;20040;-59
2022/06/27 11:59:29;;;;;;;18.13;15.85;;;21.00;99.90;;;;;;5006354;28;20109;-60
2022/06/27 12:01:58;;;;;;;19.20;15.43;;;20.90;99.90;;;;;;5006505;28;20030;-58
2022/06/27 12:04:24;;;;;;;20.08;14.52;;;20.80;99.90;;;;;;5002130;28;20101;-61
2022/06/27 12:06:55;;;;;;;16.45;14.35;;;20.70;99.90;;;;;;5008461;28;20038;-58
2022/06/27 12:09:22;;;;;;;19.00;14.82;;;20.70;99.90;;;;;;5009528;28;20665;-60
2022/06/27 12:11:54;;;;;;;16.92;13.85;;;20.80;99.90;;;;;;5008011;28;20121;-61
2022/06/27 12:14:21;;;;;;;18.48;15.98;;;21.00;99.90;;;;;;4999659;28;20034;-58
2022/06/27 12:16:50;;;;;;;20.17;15.07;;;21.10;99.90;;;;;;5009484;28;20018;-59
2022/06/27 12:19:16;;;;;;;23.27;16.58;;;21.30;99.90;;;;;;5007900;28;20025;-58
2022/06/27 12:21:42;;;;;;;18.42;16.48;;;21.30;99.90;;;;;;5003896;28;20033;-54
2022/06/27 12:24:08;;;;;;;18.23;15.63;;;21.30;99.90;;;;;;5002899;28;20052;-58
2022/06/27 12:26:34;;;;;;;22.88;15.43;;;21.50;99.90;;;;;;4999732;28;20678;-59
2022/06/27 12:28:59;;;;;;;21.02;15.55;;;21.80;99.90;;;;;;4996668;28;20129;-59
2022/06/27 12:31:25;;;;;;;17.48;15.15;;;22.30;99.90;;;;;;4982236;28;20105;-60
2022/06/27 12:33:51;;;;;;;21.35;16.38;;;22.60;99.90;;;;;;4998697;28;20075;-57
2022/06/27 12:36:17;;;;;;;19.70;15.65;;;22.70;99.90;;;;;;5006383;28;20064;-60
2022/06/27 12:38:43;;;;;;;18.02;15.80;;;22.90;99.90;;;;;;5003277;28;20772;-58